SAS61Q LGKO-ENGM
Flight info
| Callsign | SAS61Q |
|---|---|
| Flight time | 3h 55m |
| Altitude | 34000 |
| Route | LARKI UL609 MES DCT ATFIR DCT LOMOS DCT BUDOP DCT KELEL/N0450F360 DCT LUSID DCT SABAK L997 LUNIP |
| Aircraft | A320/M-SDE3FGHIRWY/LB1 |
Departure
| Time | 2026-05-08 14:24 |
|---|---|
| Airport | Kos International Airport "Ippokratis" (LGKO) |
Arrival
| Time | 2026-05-08 18:20 |
|---|---|
| Airport | Oslo-Gardermoen International Airport (ENGM) |
| Time | Latitude | Longitude | Altitude | Speed | Heading |
|---|---|---|---|---|---|
| 2026-05-08 13:59 | 36.79940 | 27.09013 | 410 ft | 0 kts | 79° |
| 2026-05-08 14:01 | 36.79984 | 27.08991 | 408 ft | 0 kts | 52° |
| 2026-05-08 14:02 | 36.79996 | 27.09012 | 408 ft | 0 kts | 52° |
| 2026-05-08 14:20 | 36.79999 | 27.09016 | 410 ft | 1 kts | 47° |
| 2026-05-08 14:20 | 36.80017 | 27.09018 | 409 ft | 5 kts | 349° |
| 2026-05-08 14:20 | 36.80011 | 27.08968 | 408 ft | 10 kts | 232° |
| 2026-05-08 14:21 | 36.80043 | 27.08902 | 412 ft | 12 kts | 324° |
| 2026-05-08 14:21 | 36.80132 | 27.08828 | 413 ft | 19 kts | 328° |
| 2026-05-08 14:21 | 36.80237 | 27.08748 | 416 ft | 13 kts | 328° |
| 2026-05-08 14:21 | 36.80311 | 27.08688 | 413 ft | 13 kts | 316° |
| 2026-05-08 14:22 | 36.80346 | 27.08585 | 417 ft | 13 kts | 283° |
| 2026-05-08 14:22 | 36.80357 | 27.08477 | 420 ft | 12 kts | 251° |
| 2026-05-08 14:22 | 36.80304 | 27.08461 | 411 ft | 0 kts | 143° |
| 2026-05-08 14:23 | 36.80208 | 27.08535 | 416 ft | 51 kts | 148° |
| 2026-05-08 14:23 | 36.79671 | 27.08952 | 407 ft | 126 kts | 148° |
| 2026-05-08 14:24 | 36.78768 | 27.09652 | 427 ft | 174 kts | 148° |
| 2026-05-08 14:24 | 36.77760 | 27.10446 | 1200 ft | 170 kts | 148° |
| 2026-05-08 14:24 | 36.76752 | 27.11243 | 1888 ft | 170 kts | 149° |
| 2026-05-08 14:24 | 36.75720 | 27.12044 | 2277 ft | 183 kts | 149° |
| 2026-05-08 14:25 | 36.74614 | 27.13012 | 2425 ft | 206 kts | 132° |
| 2026-05-08 14:25 | 36.74100 | 27.14716 | 2719 ft | 222 kts | 86° |
| 2026-05-08 14:25 | 36.74510 | 27.16553 | 3315 ft | 225 kts | 66° |
| 2026-05-08 14:25 | 36.75225 | 27.18305 | 3957 ft | 228 kts | 61° |
| 2026-05-08 14:26 | 36.76022 | 27.20032 | 4608 ft | 231 kts | 60° |
| 2026-05-08 14:26 | 36.76834 | 27.21773 | 5249 ft | 234 kts | 60° |
| 2026-05-08 14:26 | 36.77661 | 27.23546 | 5872 ft | 238 kts | 58° |
| 2026-05-08 14:26 | 36.78567 | 27.25286 | 6463 ft | 242 kts | 56° |
| 2026-05-08 14:27 | 36.79559 | 27.27001 | 7033 ft | 245 kts | 44° |
| 2026-05-08 14:27 | 36.81010 | 27.28078 | 7565 ft | 244 kts | 9° |
| 2026-05-08 14:27 | 36.82678 | 27.28057 | 8119 ft | 240 kts | 338° |
| 2026-05-08 14:27 | 36.84124 | 27.27088 | 8720 ft | 237 kts | 322° |
| 2026-05-08 14:28 | 36.85495 | 27.25937 | 9375 ft | 238 kts | 321° |
| 2026-05-08 14:28 | 36.86866 | 27.24784 | 10053 ft | 238 kts | 321° |
| 2026-05-08 14:28 | 36.88224 | 27.23640 | 10645 ft | 239 kts | 321° |
| 2026-05-08 14:28 | 36.89622 | 27.22466 | 11306 ft | 239 kts | 321° |
| 2026-05-08 14:29 | 36.90985 | 27.21322 | 11926 ft | 239 kts | 322° |
| 2026-05-08 14:29 | 36.92368 | 27.20162 | 12552 ft | 240 kts | 322° |
| 2026-05-08 14:29 | 36.93734 | 27.18969 | 13168 ft | 239 kts | 315° |
| 2026-05-08 14:29 | 36.94800 | 27.17399 | 13674 ft | 237 kts | 298° |
| 2026-05-08 14:30 | 36.95396 | 27.15449 | 14023 ft | 247 kts | 281° |
| 2026-05-08 14:30 | 36.95688 | 27.13235 | 14150 ft | 269 kts | 280° |
| 2026-05-08 14:30 | 36.95886 | 27.11667 | 14258 ft | 281 kts | 279° |
| 2026-05-08 14:30 | 36.96196 | 27.09207 | 14657 ft | 288 kts | 279° |
| 2026-05-08 14:31 | 36.96610 | 27.05903 | 15382 ft | 291 kts | 279° |
| 2026-05-08 14:31 | 36.96926 | 27.03396 | 15962 ft | 293 kts | 280° |
| 2026-05-08 14:31 | 36.97143 | 27.01693 | 16367 ft | 294 kts | 280° |
| 2026-05-08 14:32 | 36.97789 | 26.96661 | 17505 ft | 296 kts | 280° |
| 2026-05-08 14:32 | 36.98116 | 26.94111 | 18089 ft | 298 kts | 280° |
| 2026-05-08 14:32 | 36.98447 | 26.91512 | 18662 ft | 299 kts | 280° |
| 2026-05-08 14:32 | 36.98776 | 26.88931 | 19137 ft | 301 kts | 280° |
| 2026-05-08 14:33 | 36.99102 | 26.86373 | 19625 ft | 302 kts | 280° |
| 2026-05-08 14:33 | 36.99432 | 26.83770 | 20099 ft | 304 kts | 279° |
| 2026-05-08 14:33 | 36.99765 | 26.81149 | 20572 ft | 306 kts | 279° |
| 2026-05-08 14:33 | 37.00122 | 26.78517 | 21028 ft | 308 kts | 284° |
| 2026-05-08 14:34 | 37.01088 | 26.76145 | 21433 ft | 312 kts | 310° |
| 2026-05-08 14:34 | 37.02919 | 26.74637 | 21827 ft | 327 kts | 337° |
| 2026-05-08 14:34 | 37.05236 | 26.74333 | 22212 ft | 344 kts | 356° |
| 2026-05-08 14:34 | 37.07636 | 26.74728 | 22625 ft | 352 kts | 4° |
| 2026-05-08 14:35 | 37.10044 | 26.75431 | 23050 ft | 357 kts | 7° |
| 2026-05-08 14:35 | 37.12453 | 26.76247 | 23478 ft | 360 kts | 8° |
| 2026-05-08 14:35 | 37.14878 | 26.77065 | 23865 ft | 362 kts | 7° |
| 2026-05-08 14:35 | 37.17327 | 26.77835 | 24213 ft | 363 kts | 6° |
| 2026-05-08 14:36 | 37.19798 | 26.78548 | 24561 ft | 365 kts | 5° |
| 2026-05-08 14:36 | 37.22284 | 26.79219 | 24896 ft | 367 kts | 4° |
| 2026-05-08 14:36 | 37.24790 | 26.79871 | 25224 ft | 369 kts | 4° |
| 2026-05-08 14:36 | 37.27318 | 26.80523 | 25559 ft | 372 kts | 3° |
| 2026-05-08 14:37 | 37.29862 | 26.81183 | 25887 ft | 374 kts | 4° |
| 2026-05-08 14:37 | 37.32423 | 26.81848 | 26213 ft | 377 kts | 2° |
| 2026-05-08 14:37 | 37.35002 | 26.82215 | 26538 ft | 370 kts | 353° |
| 2026-05-08 14:37 | 37.37523 | 26.82064 | 26856 ft | 365 kts | 344° |
| 2026-05-08 14:38 | 37.39992 | 26.81416 | 27176 ft | 359 kts | 335° |
| 2026-05-08 14:38 | 37.42308 | 26.80307 | 27502 ft | 354 kts | 327° |
| 2026-05-08 14:38 | 37.44430 | 26.78777 | 27821 ft | 350 kts | 319° |
| 2026-05-08 14:38 | 37.46335 | 26.76888 | 28153 ft | 348 kts | 313° |
| 2026-05-08 14:39 | 37.48170 | 26.74891 | 28524 ft | 349 kts | 313° |
| 2026-05-08 14:39 | 37.50008 | 26.72900 | 28956 ft | 348 kts | 313° |
| 2026-05-08 14:39 | 37.51845 | 26.70917 | 29382 ft | 348 kts | 313° |
| 2026-05-08 14:39 | 37.53686 | 26.68935 | 29793 ft | 348 kts | 312° |
| 2026-05-08 14:40 | 37.55526 | 26.66952 | 30199 ft | 347 kts | 312° |
| 2026-05-08 14:40 | 37.57360 | 26.64972 | 30556 ft | 347 kts | 312° |
| 2026-05-08 14:40 | 37.59189 | 26.62991 | 30903 ft | 346 kts | 312° |
| 2026-05-08 14:40 | 37.61009 | 26.61017 | 31250 ft | 345 kts | 312° |
| 2026-05-08 14:41 | 37.62823 | 26.59044 | 31593 ft | 344 kts | 312° |
| 2026-05-08 14:41 | 37.64637 | 26.57071 | 31929 ft | 343 kts | 312° |
| 2026-05-08 14:41 | 37.66421 | 26.55133 | 32245 ft | 342 kts | 312° |
| 2026-05-08 14:41 | 37.68250 | 26.53150 | 32562 ft | 342 kts | 312° |
| 2026-05-08 14:42 | 37.70051 | 26.51195 | 32847 ft | 342 kts | 312° |
| 2026-05-08 14:42 | 37.71834 | 26.49256 | 33070 ft | 343 kts | 312° |
| 2026-05-08 14:42 | 37.73647 | 26.47283 | 33280 ft | 345 kts | 312° |
| 2026-05-08 14:42 | 37.75471 | 26.45297 | 33475 ft | 346 kts | 312° |
| 2026-05-08 14:43 | 37.77300 | 26.43304 | 33673 ft | 348 kts | 312° |
| 2026-05-08 14:43 | 37.79142 | 26.41296 | 33854 ft | 350 kts | 312° |
| 2026-05-08 14:43 | 37.80990 | 26.39280 | 34043 ft | 351 kts | 312° |
| 2026-05-08 14:43 | 37.82853 | 26.37248 | 34107 ft | 354 kts | 312° |
| 2026-05-08 14:44 | 37.86587 | 26.33177 | 34108 ft | 354 kts | 312° |
| 2026-05-08 14:44 | 37.90308 | 26.29101 | 34112 ft | 353 kts | 312° |
| 2026-05-08 14:45 | 37.94024 | 26.25025 | 34114 ft | 353 kts | 312° |
| 2026-05-08 14:45 | 37.97708 | 26.20972 | 34107 ft | 352 kts | 311° |
| 2026-05-08 14:46 | 38.01408 | 26.16894 | 34111 ft | 352 kts | 311° |
| 2026-05-08 14:46 | 38.05106 | 26.12820 | 34121 ft | 352 kts | 311° |
| 2026-05-08 14:47 | 38.08799 | 26.08738 | 34127 ft | 352 kts | 311° |
| 2026-05-08 14:47 | 38.12490 | 26.04658 | 34130 ft | 352 kts | 311° |
| 2026-05-08 14:48 | 38.16178 | 26.00576 | 34134 ft | 351 kts | 311° |
| 2026-05-08 14:48 | 38.19840 | 25.96515 | 34133 ft | 351 kts | 311° |
| 2026-05-08 14:49 | 38.23517 | 25.92437 | 34134 ft | 350 kts | 311° |
| 2026-05-08 14:49 | 38.27643 | 25.88988 | 34131 ft | 362 kts | 324° |
| 2026-05-08 14:50 | 38.32140 | 25.86093 | 34128 ft | 362 kts | 324° |
| 2026-05-08 14:50 | 38.36633 | 25.83196 | 34130 ft | 362 kts | 324° |
| 2026-05-08 14:51 | 38.41167 | 25.80268 | 34105 ft | 372 kts | 324° |
| 2026-05-08 14:51 | 38.45861 | 25.77224 | 34100 ft | 385 kts | 325° |
| 2026-05-08 14:52 | 38.53193 | 25.72467 | 34094 ft | 406 kts | 325° |
| 2026-05-08 14:53 | 38.58328 | 25.69140 | 34106 ft | 414 kts | 325° |
| 2026-05-08 14:53 | 38.63450 | 25.65826 | 34087 ft | 415 kts | 325° |
| 2026-05-08 14:54 | 38.68618 | 25.62477 | 34086 ft | 416 kts | 325° |
| 2026-05-08 14:54 | 38.73774 | 25.59119 | 34087 ft | 416 kts | 325° |
| 2026-05-08 14:55 | 38.78929 | 25.55748 | 34088 ft | 416 kts | 325° |
| 2026-05-08 14:55 | 38.84092 | 25.52367 | 34086 ft | 416 kts | 325° |
| 2026-05-08 14:56 | 38.89221 | 25.49005 | 34088 ft | 417 kts | 325° |
| 2026-05-08 14:56 | 38.94393 | 25.45617 | 34088 ft | 417 kts | 325° |
| 2026-05-08 14:57 | 38.99564 | 25.42215 | 34085 ft | 417 kts | 325° |
| 2026-05-08 14:57 | 39.04734 | 25.38811 | 34089 ft | 418 kts | 325° |
| 2026-05-08 14:58 | 39.09918 | 25.35395 | 34092 ft | 418 kts | 325° |
| 2026-05-08 14:58 | 39.15105 | 25.31971 | 34094 ft | 419 kts | 325° |
| 2026-05-08 14:59 | 39.20297 | 25.28532 | 34095 ft | 419 kts | 325° |
| 2026-05-08 14:59 | 39.28054 | 25.23391 | 34095 ft | 420 kts | 325° |
| 2026-05-08 15:00 | 39.33253 | 25.19933 | 34098 ft | 420 kts | 325° |
| 2026-05-08 15:00 | 39.38450 | 25.16473 | 34097 ft | 420 kts | 325° |
| 2026-05-08 15:01 | 39.43643 | 25.13011 | 34095 ft | 420 kts | 325° |
| 2026-05-08 15:01 | 39.48860 | 25.09529 | 34095 ft | 421 kts | 325° |
| 2026-05-08 15:02 | 39.54069 | 25.06040 | 34095 ft | 421 kts | 325° |
| 2026-05-08 15:02 | 39.59278 | 25.02546 | 34095 ft | 422 kts | 325° |
| 2026-05-08 15:03 | 39.64495 | 24.99047 | 34089 ft | 422 kts | 325° |
| 2026-05-08 15:03 | 39.69713 | 24.95543 | 34090 ft | 423 kts | 325° |
| 2026-05-08 15:04 | 39.74900 | 24.92049 | 34084 ft | 423 kts | 325° |
| 2026-05-08 15:04 | 39.80130 | 24.88518 | 34072 ft | 424 kts | 325° |
| 2026-05-08 15:05 | 39.85373 | 24.84972 | 34077 ft | 424 kts | 325° |
| 2026-05-08 15:05 | 39.90624 | 24.81428 | 34084 ft | 425 kts | 325° |
| 2026-05-08 15:06 | 39.95881 | 24.77868 | 34078 ft | 426 kts | 325° |
| 2026-05-08 15:06 | 40.01106 | 24.74308 | 34077 ft | 427 kts | 325° |
| 2026-05-08 15:07 | 40.06378 | 24.70720 | 34076 ft | 428 kts | 326° |
| 2026-05-08 15:07 | 40.11660 | 24.67114 | 34069 ft | 429 kts | 326° |
| 2026-05-08 15:08 | 40.16095 | 24.64083 | 34070 ft | 430 kts | 326° |
| 2026-05-08 15:08 | 40.22266 | 24.59863 | 34072 ft | 431 kts | 326° |
| 2026-05-08 15:09 | 40.27586 | 24.56215 | 34072 ft | 432 kts | 326° |
| 2026-05-08 15:09 | 40.32920 | 24.52552 | 34072 ft | 433 kts | 327° |
| 2026-05-08 15:10 | 40.38269 | 24.48864 | 34069 ft | 435 kts | 327° |
| 2026-05-08 15:10 | 40.43597 | 24.45193 | 34068 ft | 436 kts | 327° |
| 2026-05-08 15:11 | 40.48981 | 24.41481 | 34067 ft | 437 kts | 327° |
| 2026-05-08 15:11 | 40.54371 | 24.37756 | 34068 ft | 438 kts | 327° |
| 2026-05-08 15:12 | 40.59768 | 24.34014 | 34074 ft | 439 kts | 327° |
| 2026-05-08 15:12 | 40.65183 | 24.30254 | 34071 ft | 440 kts | 328° |
| 2026-05-08 15:13 | 40.70611 | 24.26498 | 34076 ft | 441 kts | 328° |
| 2026-05-08 15:13 | 40.76048 | 24.22716 | 34070 ft | 442 kts | 328° |
| 2026-05-08 15:14 | 40.81481 | 24.18909 | 34069 ft | 442 kts | 328° |
| 2026-05-08 15:14 | 40.86928 | 24.15092 | 34075 ft | 443 kts | 328° |
| 2026-05-08 15:15 | 40.91461 | 24.11913 | 34077 ft | 444 kts | 329° |
| 2026-05-08 15:15 | 40.97817 | 24.07463 | 34084 ft | 444 kts | 329° |
| 2026-05-08 15:16 | 41.02367 | 24.04271 | 34080 ft | 445 kts | 329° |
| 2026-05-08 15:16 | 41.07834 | 24.00414 | 34085 ft | 445 kts | 329° |
| 2026-05-08 15:17 | 41.13312 | 23.96537 | 34091 ft | 445 kts | 329° |
| 2026-05-08 15:17 | 41.18790 | 23.92656 | 34091 ft | 446 kts | 329° |
| 2026-05-08 15:18 | 41.24272 | 23.88775 | 34092 ft | 446 kts | 329° |
| 2026-05-08 15:18 | 41.29726 | 23.84906 | 34086 ft | 447 kts | 329° |
| 2026-05-08 15:19 | 41.35207 | 23.81005 | 34083 ft | 447 kts | 330° |
| 2026-05-08 15:19 | 41.40828 | 23.77595 | 34080 ft | 450 kts | 342° |
| 2026-05-08 15:20 | 41.46945 | 23.76071 | 34084 ft | 452 kts | 350° |
| 2026-05-08 15:20 | 41.53129 | 23.74797 | 34077 ft | 452 kts | 350° |
| 2026-05-08 15:21 | 41.59363 | 23.73496 | 34080 ft | 453 kts | 350° |
| 2026-05-08 15:21 | 41.65588 | 23.72195 | 34084 ft | 453 kts | 350° |
| 2026-05-08 15:22 | 41.71836 | 23.70880 | 34083 ft | 453 kts | 350° |
| 2026-05-08 15:22 | 41.78028 | 23.69574 | 34080 ft | 453 kts | 350° |
| 2026-05-08 15:23 | 41.84258 | 23.68262 | 34086 ft | 453 kts | 350° |
| 2026-05-08 15:23 | 41.90490 | 23.66955 | 34084 ft | 453 kts | 350° |
| 2026-05-08 15:24 | 41.96725 | 23.65644 | 34081 ft | 453 kts | 350° |
| 2026-05-08 15:24 | 42.02957 | 23.64334 | 34086 ft | 453 kts | 350° |
| 2026-05-08 15:25 | 42.09177 | 23.63012 | 34081 ft | 452 kts | 350° |
| 2026-05-08 15:25 | 42.15393 | 23.61688 | 34077 ft | 452 kts | 350° |
| 2026-05-08 15:26 | 42.21596 | 23.60362 | 34082 ft | 451 kts | 350° |
| 2026-05-08 15:26 | 42.27759 | 23.59050 | 34079 ft | 450 kts | 351° |
| 2026-05-08 15:27 | 42.33949 | 23.57733 | 34078 ft | 450 kts | 351° |
| 2026-05-08 15:27 | 42.40135 | 23.56413 | 34076 ft | 450 kts | 350° |
| 2026-05-08 15:28 | 42.46324 | 23.55080 | 34065 ft | 450 kts | 350° |
| 2026-05-08 15:28 | 42.52516 | 23.53749 | 34057 ft | 451 kts | 350° |
| 2026-05-08 15:29 | 42.58578 | 23.52449 | 34057 ft | 452 kts | 351° |
| 2026-05-08 15:29 | 42.64799 | 23.51110 | 34056 ft | 453 kts | 350° |
| 2026-05-08 15:30 | 42.71028 | 23.49766 | 34054 ft | 454 kts | 350° |
| 2026-05-08 15:30 | 42.77274 | 23.48404 | 34052 ft | 455 kts | 350° |
| 2026-05-08 15:31 | 42.83526 | 23.47043 | 34056 ft | 455 kts | 350° |
| 2026-05-08 15:31 | 42.89788 | 23.45674 | 34056 ft | 455 kts | 350° |
| 2026-05-08 15:32 | 42.96061 | 23.44313 | 34057 ft | 456 kts | 350° |
| 2026-05-08 15:32 | 43.02329 | 23.42957 | 34057 ft | 456 kts | 350° |
| 2026-05-08 15:33 | 43.08564 | 23.41590 | 34047 ft | 455 kts | 349° |
| 2026-05-08 15:33 | 43.14822 | 23.40214 | 34049 ft | 455 kts | 349° |
| 2026-05-08 15:34 | 43.21074 | 23.38844 | 34042 ft | 455 kts | 349° |
| 2026-05-08 15:34 | 43.27331 | 23.37461 | 34042 ft | 455 kts | 349° |
| 2026-05-08 15:35 | 43.33581 | 23.36083 | 34041 ft | 454 kts | 349° |
| 2026-05-08 15:35 | 43.39821 | 23.34712 | 34040 ft | 454 kts | 349° |
| 2026-05-08 15:36 | 43.46056 | 23.33333 | 34032 ft | 453 kts | 349° |
| 2026-05-08 15:36 | 43.52251 | 23.31950 | 34031 ft | 453 kts | 349° |
| 2026-05-08 15:37 | 43.58484 | 23.30565 | 34023 ft | 453 kts | 349° |
| 2026-05-08 15:37 | 43.64717 | 23.29176 | 34025 ft | 453 kts | 349° |
| 2026-05-08 15:38 | 43.70953 | 23.27783 | 34017 ft | 453 kts | 349° |
| 2026-05-08 15:38 | 43.77192 | 23.26388 | 34016 ft | 453 kts | 349° |
| 2026-05-08 15:39 | 43.83345 | 23.24793 | 34008 ft | 451 kts | 341° |
| 2026-05-08 15:39 | 43.89172 | 23.21612 | 34007 ft | 449 kts | 335° |
| 2026-05-08 15:40 | 43.94928 | 23.18254 | 34009 ft | 449 kts | 335° |
| 2026-05-08 15:40 | 44.00683 | 23.14892 | 34006 ft | 449 kts | 335° |
| 2026-05-08 15:41 | 44.06439 | 23.11518 | 34004 ft | 448 kts | 335° |
| 2026-05-08 15:41 | 44.12146 | 23.08160 | 34012 ft | 448 kts | 335° |
| 2026-05-08 15:42 | 44.17887 | 23.04776 | 34004 ft | 447 kts | 335° |
| 2026-05-08 15:42 | 44.23613 | 23.01402 | 33996 ft | 447 kts | 335° |
| 2026-05-08 15:43 | 44.29340 | 22.98017 | 33990 ft | 447 kts | 335° |
| 2026-05-08 15:43 | 44.35072 | 22.94621 | 33989 ft | 447 kts | 335° |
| 2026-05-08 15:44 | 44.40800 | 22.91225 | 33991 ft | 447 kts | 335° |
| 2026-05-08 15:44 | 44.46534 | 22.87826 | 33991 ft | 447 kts | 335° |
| 2026-05-08 15:45 | 44.52231 | 22.84428 | 33993 ft | 447 kts | 334° |
| 2026-05-08 15:45 | 44.57951 | 22.81002 | 33990 ft | 447 kts | 334° |
| 2026-05-08 15:46 | 44.63677 | 22.77573 | 33992 ft | 447 kts | 334° |
| 2026-05-08 15:46 | 44.69403 | 22.74145 | 33993 ft | 447 kts | 334° |
| 2026-05-08 15:47 | 44.75128 | 22.70712 | 33995 ft | 448 kts | 334° |
| 2026-05-08 15:47 | 44.80860 | 22.67257 | 33996 ft | 448 kts | 334° |
| 2026-05-08 15:48 | 44.89451 | 22.62053 | 34000 ft | 448 kts | 334° |
| 2026-05-08 15:49 | 44.95187 | 22.58572 | 34009 ft | 448 kts | 333° |
| 2026-05-08 15:49 | 45.00920 | 22.55099 | 34018 ft | 448 kts | 333° |
| 2026-05-08 15:50 | 45.06619 | 22.51639 | 34024 ft | 448 kts | 333° |
| 2026-05-08 15:50 | 45.12355 | 22.48134 | 34029 ft | 448 kts | 333° |
| 2026-05-08 15:51 | 45.18023 | 22.44664 | 34034 ft | 447 kts | 333° |
| 2026-05-08 15:51 | 45.23719 | 22.41181 | 34036 ft | 447 kts | 333° |
| 2026-05-08 15:52 | 45.29379 | 22.37714 | 34037 ft | 446 kts | 333° |
| 2026-05-08 15:52 | 45.35079 | 22.34210 | 34034 ft | 446 kts | 332° |
| 2026-05-08 15:53 | 45.40770 | 22.30703 | 34031 ft | 446 kts | 332° |
| 2026-05-08 15:53 | 45.46463 | 22.27179 | 34030 ft | 446 kts | 332° |
| 2026-05-08 15:54 | 45.52157 | 22.23647 | 34029 ft | 445 kts | 332° |
| 2026-05-08 15:54 | 45.57846 | 22.20119 | 34027 ft | 445 kts | 332° |
| 2026-05-08 15:55 | 45.63495 | 22.16607 | 34030 ft | 445 kts | 332° |
| 2026-05-08 15:55 | 45.72011 | 22.11288 | 34029 ft | 444 kts | 332° |
| 2026-05-08 15:56 | 45.77682 | 22.07749 | 34026 ft | 444 kts | 332° |
| 2026-05-08 15:56 | 45.83341 | 22.04201 | 34029 ft | 443 kts | 331° |
| 2026-05-08 15:57 | 45.88951 | 22.00665 | 34032 ft | 443 kts | 331° |
| 2026-05-08 15:57 | 45.94595 | 21.97106 | 34032 ft | 443 kts | 331° |
| 2026-05-08 15:58 | 46.00242 | 21.93549 | 34036 ft | 442 kts | 331° |
| 2026-05-08 15:58 | 46.05878 | 21.89992 | 34040 ft | 442 kts | 331° |
| 2026-05-08 15:59 | 46.11524 | 21.86420 | 34039 ft | 442 kts | 331° |
| 2026-05-08 15:59 | 46.16204 | 21.83445 | 34034 ft | 442 kts | 331° |
| 2026-05-08 16:00 | 46.21829 | 21.79866 | 34037 ft | 442 kts | 331° |
| 2026-05-08 16:00 | 46.27451 | 21.76273 | 34034 ft | 442 kts | 331° |
| 2026-05-08 16:01 | 46.33079 | 21.72675 | 34027 ft | 442 kts | 331° |
| 2026-05-08 16:01 | 46.38711 | 21.69063 | 34033 ft | 442 kts | 331° |
| 2026-05-08 16:02 | 46.44312 | 21.65465 | 34031 ft | 443 kts | 331° |
| 2026-05-08 16:02 | 46.49945 | 21.61838 | 34035 ft | 443 kts | 331° |
| 2026-05-08 16:03 | 46.55584 | 21.58200 | 34034 ft | 444 kts | 330° |
| 2026-05-08 16:03 | 46.61233 | 21.54548 | 34029 ft | 444 kts | 330° |
| 2026-05-08 16:04 | 46.66875 | 21.50886 | 34052 ft | 444 kts | 330° |
| 2026-05-08 16:04 | 46.72711 | 21.47773 | 34038 ft | 448 kts | 336° |
| 2026-05-08 16:05 | 46.78635 | 21.44960 | 34052 ft | 447 kts | 336° |
| 2026-05-08 16:05 | 46.84543 | 21.42130 | 34058 ft | 447 kts | 336° |
| 2026-05-08 16:06 | 46.90459 | 21.39283 | 34056 ft | 447 kts | 336° |
| 2026-05-08 16:06 | 46.96365 | 21.36437 | 34056 ft | 446 kts | 336° |
| 2026-05-08 16:07 | 47.02219 | 21.33609 | 34057 ft | 446 kts | 336° |
| 2026-05-08 16:07 | 47.08113 | 21.30756 | 34050 ft | 445 kts | 335° |
| 2026-05-08 16:08 | 47.13993 | 21.27900 | 34045 ft | 445 kts | 335° |
| 2026-05-08 16:08 | 47.19885 | 21.25042 | 34050 ft | 445 kts | 335° |
| 2026-05-08 16:09 | 47.25766 | 21.22183 | 34052 ft | 445 kts | 335° |
| 2026-05-08 16:09 | 47.31644 | 21.19302 | 34050 ft | 445 kts | 335° |
| 2026-05-08 16:10 | 47.37485 | 21.16435 | 34055 ft | 445 kts | 335° |
| 2026-05-08 16:10 | 47.43364 | 21.13553 | 34056 ft | 445 kts | 335° |
| 2026-05-08 16:11 | 47.49249 | 21.10669 | 34062 ft | 445 kts | 335° |
| 2026-05-08 16:11 | 47.55112 | 21.07776 | 34054 ft | 444 kts | 335° |
| 2026-05-08 16:12 | 47.60982 | 21.04882 | 34057 ft | 443 kts | 335° |
| 2026-05-08 16:12 | 47.66832 | 21.01975 | 34058 ft | 442 kts | 335° |
| 2026-05-08 16:13 | 47.72663 | 20.99076 | 34066 ft | 442 kts | 335° |
| 2026-05-08 16:13 | 47.78489 | 20.96187 | 34065 ft | 440 kts | 335° |
| 2026-05-08 16:14 | 47.84244 | 20.93313 | 34069 ft | 439 kts | 335° |
| 2026-05-08 16:14 | 47.90035 | 20.90412 | 34069 ft | 438 kts | 335° |
| 2026-05-08 16:15 | 47.95800 | 20.87522 | 34069 ft | 437 kts | 335° |
| 2026-05-08 16:15 | 48.01559 | 20.84626 | 34067 ft | 436 kts | 334° |
| 2026-05-08 16:16 | 48.07317 | 20.81728 | 34066 ft | 436 kts | 334° |
| 2026-05-08 16:16 | 48.13060 | 20.78818 | 34065 ft | 436 kts | 334° |
| 2026-05-08 16:17 | 48.17837 | 20.76399 | 34067 ft | 436 kts | 334° |
| 2026-05-08 16:17 | 48.24517 | 20.73023 | 34067 ft | 436 kts | 334° |
| 2026-05-08 16:18 | 48.30279 | 20.70100 | 34070 ft | 437 kts | 334° |
| 2026-05-08 16:18 | 48.36046 | 20.67164 | 34070 ft | 437 kts | 334° |
| 2026-05-08 16:19 | 48.41822 | 20.64211 | 34072 ft | 438 kts | 334° |
| 2026-05-08 16:19 | 48.47596 | 20.61256 | 34078 ft | 439 kts | 333° |
| 2026-05-08 16:20 | 48.53381 | 20.58290 | 34079 ft | 439 kts | 334° |
| 2026-05-08 16:20 | 48.59167 | 20.55319 | 34083 ft | 439 kts | 334° |
| 2026-05-08 16:21 | 48.64910 | 20.52351 | 34092 ft | 438 kts | 333° |
| 2026-05-08 16:21 | 48.70685 | 20.49361 | 34094 ft | 439 kts | 334° |
| 2026-05-08 16:22 | 48.76458 | 20.46373 | 34095 ft | 438 kts | 334° |
| 2026-05-08 16:22 | 48.82229 | 20.43372 | 34088 ft | 438 kts | 334° |
| 2026-05-08 16:23 | 48.88000 | 20.40369 | 34096 ft | 438 kts | 334° |
| 2026-05-08 16:23 | 48.93778 | 20.37347 | 34102 ft | 439 kts | 334° |
| 2026-05-08 16:24 | 48.99529 | 20.34340 | 34101 ft | 439 kts | 334° |
| 2026-05-08 16:24 | 49.05319 | 20.31304 | 34098 ft | 440 kts | 334° |
| 2026-05-08 16:25 | 49.11112 | 20.28251 | 34099 ft | 440 kts | 334° |
| 2026-05-08 16:25 | 49.16915 | 20.25183 | 34093 ft | 441 kts | 334° |
| 2026-05-08 16:26 | 49.22735 | 20.22116 | 34095 ft | 443 kts | 335° |
| 2026-05-08 16:26 | 49.28577 | 20.19034 | 34103 ft | 444 kts | 335° |
| 2026-05-08 16:27 | 49.34198 | 20.15408 | 34116 ft | 438 kts | 327° |
| 2026-05-08 16:27 | 49.39666 | 20.11244 | 34124 ft | 439 kts | 327° |
| 2026-05-08 16:28 | 49.45149 | 20.07082 | 34128 ft | 439 kts | 328° |
| 2026-05-08 16:28 | 49.50645 | 20.02904 | 34131 ft | 440 kts | 328° |
| 2026-05-08 16:29 | 49.56114 | 19.98730 | 34133 ft | 440 kts | 328° |
| 2026-05-08 16:29 | 49.61408 | 19.94677 | 34127 ft | 441 kts | 328° |
| 2026-05-08 16:30 | 49.66677 | 19.90638 | 34124 ft | 442 kts | 328° |
| 2026-05-08 16:30 | 49.72186 | 19.86409 | 34127 ft | 443 kts | 328° |
| 2026-05-08 16:31 | 49.77665 | 19.82179 | 34130 ft | 443 kts | 328° |
| 2026-05-08 16:31 | 49.83190 | 19.77898 | 34138 ft | 443 kts | 328° |
| 2026-05-08 16:32 | 49.88682 | 19.73645 | 34142 ft | 444 kts | 328° |
| 2026-05-08 16:32 | 49.94213 | 19.69359 | 34141 ft | 444 kts | 328° |
| 2026-05-08 16:33 | 49.99733 | 19.65048 | 34139 ft | 444 kts | 328° |
| 2026-05-08 16:33 | 50.05219 | 19.60753 | 34139 ft | 443 kts | 327° |
| 2026-05-08 16:34 | 50.10731 | 19.56434 | 34142 ft | 444 kts | 327° |
| 2026-05-08 16:34 | 50.16253 | 19.52096 | 34144 ft | 444 kts | 327° |
| 2026-05-08 16:35 | 50.21771 | 19.47757 | 34158 ft | 444 kts | 327° |
| 2026-05-08 16:35 | 50.27293 | 19.43413 | 34156 ft | 444 kts | 327° |
| 2026-05-08 16:36 | 50.32809 | 19.39058 | 34160 ft | 444 kts | 327° |
| 2026-05-08 16:36 | 50.38319 | 19.34691 | 34155 ft | 444 kts | 327° |
| 2026-05-08 16:37 | 50.43797 | 19.30316 | 34153 ft | 444 kts | 327° |
| 2026-05-08 16:37 | 50.49321 | 19.25904 | 34155 ft | 445 kts | 327° |
| 2026-05-08 16:38 | 50.54843 | 19.21495 | 34155 ft | 445 kts | 327° |
| 2026-05-08 16:38 | 50.60350 | 19.17082 | 34154 ft | 446 kts | 327° |
| 2026-05-08 16:39 | 50.65886 | 19.12629 | 34156 ft | 446 kts | 327° |
| 2026-05-08 16:39 | 50.71431 | 19.08160 | 34156 ft | 447 kts | 327° |
| 2026-05-08 16:40 | 50.76937 | 19.03708 | 34161 ft | 447 kts | 327° |
| 2026-05-08 16:40 | 50.82501 | 18.99200 | 34160 ft | 448 kts | 327° |
| 2026-05-08 16:41 | 50.88062 | 18.94685 | 34161 ft | 449 kts | 327° |
| 2026-05-08 16:42 | 50.96370 | 18.87898 | 34160 ft | 450 kts | 327° |
| 2026-05-08 16:42 | 51.01949 | 18.83337 | 34160 ft | 450 kts | 327° |
| 2026-05-08 16:43 | 51.07536 | 18.78768 | 34151 ft | 451 kts | 327° |
| 2026-05-08 16:43 | 51.13090 | 18.74207 | 34153 ft | 452 kts | 327° |
| 2026-05-08 16:44 | 51.18687 | 18.69592 | 34155 ft | 453 kts | 327° |
| 2026-05-08 16:44 | 51.23343 | 18.65730 | 34154 ft | 453 kts | 327° |
| 2026-05-08 16:45 | 51.28946 | 18.61076 | 34155 ft | 454 kts | 327° |
| 2026-05-08 16:45 | 51.34575 | 18.56390 | 34162 ft | 455 kts | 327° |
| 2026-05-08 16:46 | 51.40198 | 18.51708 | 34163 ft | 456 kts | 327° |
| 2026-05-08 16:46 | 51.45787 | 18.47034 | 34161 ft | 456 kts | 327° |
| 2026-05-08 16:47 | 51.51423 | 18.42323 | 34169 ft | 457 kts | 327° |
| 2026-05-08 16:47 | 51.57063 | 18.37583 | 34171 ft | 457 kts | 327° |
| 2026-05-08 16:48 | 51.62708 | 18.32820 | 34172 ft | 458 kts | 327° |
| 2026-05-08 16:48 | 51.68357 | 18.28051 | 34172 ft | 458 kts | 327° |
| 2026-05-08 16:49 | 51.74015 | 18.23260 | 34174 ft | 459 kts | 327° |
| 2026-05-08 16:49 | 51.79628 | 18.18479 | 34174 ft | 459 kts | 327° |
| 2026-05-08 16:50 | 51.85286 | 18.13646 | 34168 ft | 460 kts | 327° |
| 2026-05-08 16:50 | 51.90955 | 18.08812 | 34172 ft | 460 kts | 327° |
| 2026-05-08 16:51 | 51.96597 | 18.03985 | 34170 ft | 460 kts | 327° |
| 2026-05-08 16:51 | 52.02263 | 17.99106 | 34173 ft | 461 kts | 327° |
| 2026-05-08 16:52 | 52.07937 | 17.94201 | 34176 ft | 461 kts | 327° |
| 2026-05-08 16:52 | 52.13613 | 17.89283 | 34185 ft | 461 kts | 327° |
| 2026-05-08 16:53 | 52.22087 | 17.81939 | 34183 ft | 462 kts | 327° |
| 2026-05-08 16:53 | 52.27770 | 17.76991 | 34181 ft | 462 kts | 327° |
| 2026-05-08 16:54 | 52.33420 | 17.72047 | 34188 ft | 462 kts | 327° |
| 2026-05-08 16:54 | 52.39096 | 17.67068 | 34189 ft | 463 kts | 327° |
| 2026-05-08 16:55 | 52.44796 | 17.62066 | 34177 ft | 463 kts | 327° |
| 2026-05-08 16:55 | 52.50470 | 17.57070 | 34180 ft | 463 kts | 327° |
| 2026-05-08 16:56 | 52.56115 | 17.52070 | 34182 ft | 463 kts | 327° |
| 2026-05-08 16:56 | 52.61794 | 17.47032 | 34182 ft | 463 kts | 327° |
| 2026-05-08 16:57 | 52.67443 | 17.42011 | 34185 ft | 463 kts | 327° |
| 2026-05-08 16:57 | 52.73122 | 17.36950 | 34186 ft | 463 kts | 327° |
| 2026-05-08 16:58 | 52.78803 | 17.31866 | 34186 ft | 463 kts | 327° |
| 2026-05-08 16:58 | 52.84427 | 17.26812 | 34190 ft | 463 kts | 327° |
| 2026-05-08 16:59 | 52.90121 | 17.21697 | 34189 ft | 464 kts | 327° |
| 2026-05-08 16:59 | 52.95768 | 17.16604 | 34186 ft | 464 kts | 327° |
| 2026-05-08 17:00 | 53.01439 | 17.11461 | 34187 ft | 464 kts | 327° |
| 2026-05-08 17:00 | 53.07109 | 17.06306 | 34187 ft | 464 kts | 327° |
| 2026-05-08 17:01 | 53.12792 | 17.01128 | 34191 ft | 465 kts | 327° |
| 2026-05-08 17:01 | 53.18437 | 16.95979 | 34190 ft | 465 kts | 327° |
| 2026-05-08 17:02 | 53.24110 | 16.90768 | 34187 ft | 465 kts | 327° |
| 2026-05-08 17:02 | 53.29798 | 16.85542 | 34189 ft | 466 kts | 328° |
| 2026-05-08 17:03 | 53.35481 | 16.80320 | 34188 ft | 466 kts | 328° |
| 2026-05-08 17:03 | 53.41156 | 16.75062 | 34185 ft | 466 kts | 327° |
| 2026-05-08 17:04 | 53.46835 | 16.69794 | 34185 ft | 466 kts | 328° |
| 2026-05-08 17:04 | 53.52473 | 16.64544 | 34179 ft | 465 kts | 327° |
| 2026-05-08 17:05 | 53.58132 | 16.59249 | 34187 ft | 465 kts | 327° |
| 2026-05-08 17:05 | 53.63781 | 16.53965 | 34185 ft | 464 kts | 328° |
| 2026-05-08 17:06 | 53.69420 | 16.48675 | 34192 ft | 463 kts | 327° |
| 2026-05-08 17:06 | 53.75049 | 16.43371 | 34194 ft | 462 kts | 327° |
| 2026-05-08 17:07 | 53.80667 | 16.38055 | 34205 ft | 462 kts | 327° |
| 2026-05-08 17:07 | 53.86274 | 16.32737 | 34211 ft | 461 kts | 327° |
| 2026-05-08 17:08 | 53.91875 | 16.27415 | 34218 ft | 461 kts | 327° |
| 2026-05-08 17:08 | 53.97433 | 16.22123 | 34222 ft | 460 kts | 328° |
| 2026-05-08 17:09 | 54.03013 | 16.16783 | 34232 ft | 459 kts | 327° |
| 2026-05-08 17:09 | 54.08587 | 16.11415 | 34234 ft | 458 kts | 327° |
| 2026-05-08 17:10 | 54.14105 | 16.06091 | 34241 ft | 457 kts | 327° |
| 2026-05-08 17:10 | 54.19649 | 16.00750 | 34243 ft | 456 kts | 328° |
| 2026-05-08 17:11 | 54.25178 | 15.95406 | 34250 ft | 455 kts | 327° |
| 2026-05-08 17:11 | 54.30658 | 15.90071 | 34255 ft | 454 kts | 327° |
| 2026-05-08 17:12 | 54.36141 | 15.84714 | 34257 ft | 453 kts | 327° |
| 2026-05-08 17:12 | 54.41616 | 15.79366 | 34262 ft | 452 kts | 328° |
| 2026-05-08 17:13 | 54.47068 | 15.74030 | 34267 ft | 450 kts | 328° |
| 2026-05-08 17:13 | 54.52503 | 15.68673 | 34271 ft | 449 kts | 327° |
| 2026-05-08 17:14 | 54.57891 | 15.63345 | 34271 ft | 448 kts | 328° |
| 2026-05-08 17:14 | 54.63294 | 15.57999 | 34274 ft | 447 kts | 328° |
| 2026-05-08 17:15 | 54.68682 | 15.52640 | 34276 ft | 446 kts | 328° |
| 2026-05-08 17:15 | 54.74059 | 15.47293 | 34279 ft | 445 kts | 328° |
| 2026-05-08 17:16 | 54.79416 | 15.41945 | 34274 ft | 444 kts | 328° |
| 2026-05-08 17:16 | 54.84733 | 15.36604 | 34280 ft | 443 kts | 328° |
| 2026-05-08 17:17 | 54.90064 | 15.31232 | 34284 ft | 442 kts | 328° |
| 2026-05-08 17:17 | 54.95387 | 15.25868 | 34287 ft | 441 kts | 328° |
| 2026-05-08 17:18 | 55.00665 | 15.20513 | 34293 ft | 441 kts | 328° |
| 2026-05-08 17:18 | 55.05958 | 15.15109 | 34293 ft | 440 kts | 328° |
| 2026-05-08 17:19 | 55.11243 | 15.09701 | 34297 ft | 439 kts | 328° |
| 2026-05-08 17:19 | 55.16521 | 15.04290 | 34300 ft | 439 kts | 328° |
| 2026-05-08 17:20 | 55.21745 | 14.98911 | 34294 ft | 438 kts | 328° |
| 2026-05-08 17:20 | 55.27000 | 14.93494 | 34299 ft | 437 kts | 328° |
| 2026-05-08 17:21 | 55.32228 | 14.88085 | 34300 ft | 436 kts | 328° |
| 2026-05-08 17:21 | 55.37462 | 14.82643 | 34298 ft | 436 kts | 328° |
| 2026-05-08 17:22 | 55.42688 | 14.77204 | 34303 ft | 435 kts | 328° |
| 2026-05-08 17:22 | 55.47866 | 14.71800 | 34304 ft | 435 kts | 328° |
| 2026-05-08 17:23 | 55.53064 | 14.66343 | 34303 ft | 434 kts | 328° |
| 2026-05-08 17:23 | 55.58250 | 14.60883 | 34303 ft | 433 kts | 328° |
| 2026-05-08 17:24 | 55.63429 | 14.55422 | 34304 ft | 432 kts | 329° |
| 2026-05-08 17:24 | 55.68590 | 14.49974 | 34312 ft | 431 kts | 329° |
| 2026-05-08 17:25 | 55.73707 | 14.44545 | 34308 ft | 430 kts | 329° |
| 2026-05-08 17:25 | 55.78842 | 14.39070 | 34315 ft | 429 kts | 329° |
| 2026-05-08 17:26 | 55.83961 | 14.33607 | 34315 ft | 429 kts | 329° |
| 2026-05-08 17:26 | 55.89288 | 14.28809 | 34313 ft | 428 kts | 335° |
| 2026-05-08 17:27 | 55.94677 | 14.24417 | 34318 ft | 428 kts | 335° |
| 2026-05-08 17:27 | 56.00157 | 14.20271 | 34305 ft | 428 kts | 344° |
| 2026-05-08 17:28 | 56.05936 | 14.17664 | 34304 ft | 428 kts | 346° |
| 2026-05-08 17:28 | 56.10745 | 14.15573 | 34301 ft | 428 kts | 346° |
| 2026-05-08 17:29 | 56.16539 | 14.13057 | 34298 ft | 429 kts | 346° |
| 2026-05-08 17:29 | 56.22154 | 14.09583 | 34295 ft | 427 kts | 334° |
| 2026-05-08 17:30 | 56.27534 | 14.04986 | 34293 ft | 428 kts | 334° |
| 2026-05-08 17:30 | 56.32912 | 14.00392 | 34294 ft | 428 kts | 334° |
| 2026-05-08 17:31 | 56.38261 | 13.95786 | 34299 ft | 428 kts | 334° |
| 2026-05-08 17:31 | 56.43633 | 13.91136 | 34297 ft | 428 kts | 334° |
| 2026-05-08 17:32 | 56.48998 | 13.86473 | 34294 ft | 428 kts | 334° |
| 2026-05-08 17:32 | 56.54362 | 13.81790 | 34289 ft | 428 kts | 334° |
| 2026-05-08 17:33 | 56.59728 | 13.77095 | 34295 ft | 428 kts | 334° |
| 2026-05-08 17:33 | 56.65082 | 13.72404 | 34292 ft | 428 kts | 334° |
| 2026-05-08 17:34 | 56.70408 | 13.67716 | 34287 ft | 428 kts | 334° |
| 2026-05-08 17:34 | 56.75762 | 13.62975 | 34291 ft | 427 kts | 333° |
| 2026-05-08 17:35 | 56.81114 | 13.58227 | 34290 ft | 427 kts | 334° |
| 2026-05-08 17:35 | 56.86463 | 13.53481 | 34285 ft | 427 kts | 333° |
| 2026-05-08 17:36 | 56.91815 | 13.48712 | 34286 ft | 428 kts | 333° |
| 2026-05-08 17:36 | 56.97172 | 13.43928 | 34282 ft | 428 kts | 333° |
| 2026-05-08 17:37 | 57.02489 | 13.39168 | 34285 ft | 428 kts | 333° |
| 2026-05-08 17:37 | 57.07835 | 13.34347 | 34284 ft | 428 kts | 333° |
| 2026-05-08 17:38 | 57.13183 | 13.29521 | 34282 ft | 428 kts | 333° |
| 2026-05-08 17:38 | 57.18530 | 13.24674 | 34277 ft | 428 kts | 333° |
| 2026-05-08 17:39 | 57.23873 | 13.19820 | 34278 ft | 428 kts | 333° |
| 2026-05-08 17:39 | 57.29218 | 13.14947 | 34277 ft | 428 kts | 333° |
| 2026-05-08 17:40 | 57.34556 | 13.10064 | 34276 ft | 428 kts | 333° |
| 2026-05-08 17:40 | 57.39862 | 13.05195 | 34269 ft | 428 kts | 333° |
| 2026-05-08 17:41 | 57.45206 | 13.00272 | 34274 ft | 429 kts | 333° |
| 2026-05-08 17:41 | 57.50549 | 12.95337 | 34272 ft | 429 kts | 333° |
| 2026-05-08 17:42 | 57.55906 | 12.90379 | 34270 ft | 429 kts | 333° |
| 2026-05-08 17:42 | 57.61255 | 12.85393 | 34272 ft | 430 kts | 333° |
| 2026-05-08 17:43 | 57.66612 | 12.80386 | 34272 ft | 430 kts | 333° |
| 2026-05-08 17:43 | 57.71933 | 12.75404 | 34278 ft | 430 kts | 333° |
| 2026-05-08 17:44 | 57.77288 | 12.70392 | 34273 ft | 430 kts | 333° |
| 2026-05-08 17:44 | 57.82646 | 12.65355 | 34269 ft | 431 kts | 333° |
| 2026-05-08 17:45 | 57.85339 | 12.62813 | 34111 ft | 431 kts | 333° |
| 2026-05-08 17:45 | 57.88013 | 12.60281 | 33824 ft | 428 kts | 333° |
| 2026-05-08 17:45 | 57.90669 | 12.57756 | 33543 ft | 426 kts | 332° |
| 2026-05-08 17:45 | 57.93312 | 12.55239 | 33272 ft | 425 kts | 332° |
| 2026-05-08 17:46 | 57.95945 | 12.52732 | 33003 ft | 423 kts | 332° |
| 2026-05-08 17:46 | 57.98569 | 12.50234 | 32730 ft | 421 kts | 332° |
| 2026-05-08 17:46 | 58.01190 | 12.47735 | 32463 ft | 420 kts | 332° |
| 2026-05-08 17:46 | 58.03789 | 12.45247 | 32202 ft | 418 kts | 332° |
| 2026-05-08 17:47 | 58.06382 | 12.42761 | 31941 ft | 417 kts | 332° |
| 2026-05-08 17:47 | 58.08932 | 12.40317 | 31681 ft | 415 kts | 332° |
| 2026-05-08 17:47 | 58.11499 | 12.37854 | 31433 ft | 414 kts | 332° |
| 2026-05-08 17:47 | 58.13239 | 12.36180 | 31221 ft | 417 kts | 333° |
| 2026-05-08 17:48 | 58.16678 | 12.32868 | 30891 ft | 419 kts | 333° |
| 2026-05-08 17:48 | 58.19283 | 12.30355 | 30642 ft | 418 kts | 332° |
| 2026-05-08 17:48 | 58.21870 | 12.27851 | 30391 ft | 416 kts | 332° |
| 2026-05-08 17:48 | 58.24444 | 12.25358 | 30115 ft | 415 kts | 332° |
| 2026-05-08 17:49 | 58.27017 | 12.22868 | 29818 ft | 413 kts | 332° |
| 2026-05-08 17:49 | 58.29547 | 12.20416 | 29539 ft | 411 kts | 332° |
| 2026-05-08 17:49 | 58.32087 | 12.17948 | 29255 ft | 410 kts | 332° |
| 2026-05-08 17:49 | 58.34622 | 12.15478 | 28970 ft | 408 kts | 332° |
| 2026-05-08 17:50 | 58.37143 | 12.13015 | 28695 ft | 406 kts | 332° |
| 2026-05-08 17:50 | 58.39656 | 12.10552 | 28419 ft | 405 kts | 332° |
| 2026-05-08 17:50 | 58.42152 | 12.08100 | 28146 ft | 403 kts | 332° |
| 2026-05-08 17:50 | 58.44646 | 12.05645 | 27875 ft | 402 kts | 332° |
| 2026-05-08 17:51 | 58.47125 | 12.03201 | 27605 ft | 401 kts | 332° |
| 2026-05-08 17:51 | 58.49596 | 12.00764 | 27343 ft | 399 kts | 331° |
| 2026-05-08 17:51 | 58.52133 | 11.98632 | 27077 ft | 398 kts | 342° |
| 2026-05-08 17:51 | 58.54785 | 11.97124 | 26815 ft | 397 kts | 342° |
| 2026-05-08 17:52 | 58.57431 | 11.95626 | 26562 ft | 396 kts | 342° |
| 2026-05-08 17:52 | 58.60069 | 11.94131 | 26303 ft | 395 kts | 342° |
| 2026-05-08 17:52 | 58.65319 | 11.91142 | 25805 ft | 392 kts | 342° |
| 2026-05-08 17:53 | 58.67938 | 11.89653 | 25551 ft | 391 kts | 342° |
| 2026-05-08 17:53 | 58.70500 | 11.88181 | 25304 ft | 389 kts | 342° |
| 2026-05-08 17:53 | 58.73092 | 11.86687 | 25063 ft | 388 kts | 342° |
| 2026-05-08 17:53 | 58.75676 | 11.85199 | 24824 ft | 387 kts | 342° |
| 2026-05-08 17:54 | 58.78254 | 11.83716 | 24581 ft | 385 kts | 342° |
| 2026-05-08 17:54 | 58.80823 | 11.82240 | 24346 ft | 384 kts | 342° |
| 2026-05-08 17:54 | 58.83382 | 11.80772 | 24114 ft | 383 kts | 342° |
| 2026-05-08 17:54 | 58.85931 | 11.79302 | 23875 ft | 382 kts | 342° |
| 2026-05-08 17:55 | 58.88472 | 11.77834 | 23603 ft | 380 kts | 342° |
| 2026-05-08 17:55 | 58.91006 | 11.76371 | 23320 ft | 379 kts | 342° |
| 2026-05-08 17:55 | 58.93525 | 11.74919 | 23045 ft | 377 kts | 342° |
| 2026-05-08 17:55 | 58.96032 | 11.73470 | 22769 ft | 375 kts | 342° |
| 2026-05-08 17:56 | 58.98527 | 11.72023 | 22496 ft | 373 kts | 342° |
| 2026-05-08 17:56 | 59.01014 | 11.70578 | 22228 ft | 372 kts | 342° |
| 2026-05-08 17:56 | 59.03456 | 11.69157 | 21961 ft | 370 kts | 341° |
| 2026-05-08 17:56 | 59.05916 | 11.67720 | 21700 ft | 368 kts | 341° |
| 2026-05-08 17:57 | 59.08363 | 11.66289 | 21436 ft | 366 kts | 341° |
| 2026-05-08 17:57 | 59.10804 | 11.64861 | 21176 ft | 365 kts | 341° |
| 2026-05-08 17:57 | 59.13229 | 11.63441 | 20914 ft | 363 kts | 341° |
| 2026-05-08 17:57 | 59.15645 | 11.62024 | 20659 ft | 362 kts | 341° |
| 2026-05-08 17:58 | 59.18046 | 11.60608 | 20402 ft | 360 kts | 341° |
| 2026-05-08 17:58 | 59.20440 | 11.59191 | 20152 ft | 358 kts | 341° |
| 2026-05-08 17:58 | 59.22820 | 11.57784 | 19899 ft | 357 kts | 341° |
| 2026-05-08 17:58 | 59.25190 | 11.56388 | 19649 ft | 355 kts | 341° |
| 2026-05-08 17:59 | 59.27550 | 11.55000 | 19416 ft | 354 kts | 341° |
| 2026-05-08 17:59 | 59.29902 | 11.53618 | 19166 ft | 352 kts | 341° |
| 2026-05-08 17:59 | 59.32240 | 11.52236 | 18922 ft | 351 kts | 341° |
| 2026-05-08 17:59 | 59.34572 | 11.50855 | 18684 ft | 349 kts | 341° |
| 2026-05-08 18:00 | 59.36898 | 11.49471 | 18425 ft | 347 kts | 341° |
| 2026-05-08 18:00 | 59.41567 | 11.47578 | 17877 ft | 341 kts | 358° |
| 2026-05-08 18:00 | 59.43915 | 11.47897 | 17604 ft | 336 kts | 9° |
| 2026-05-08 18:01 | 59.46156 | 11.49055 | 17330 ft | 332 kts | 18° |
| 2026-05-08 18:01 | 59.48354 | 11.50459 | 17060 ft | 331 kts | 17° |
| 2026-05-08 18:01 | 59.50542 | 11.51850 | 16793 ft | 329 kts | 17° |
| 2026-05-08 18:01 | 59.52716 | 11.53225 | 16531 ft | 328 kts | 17° |
| 2026-05-08 18:02 | 59.54885 | 11.54599 | 16268 ft | 327 kts | 17° |
| 2026-05-08 18:02 | 59.56321 | 11.55506 | 16098 ft | 326 kts | 17° |
| 2026-05-08 18:02 | 59.59207 | 11.57329 | 15756 ft | 324 kts | 17° |
| 2026-05-08 18:02 | 59.61350 | 11.58692 | 15502 ft | 323 kts | 17° |
| 2026-05-08 18:03 | 59.63487 | 11.60058 | 15250 ft | 322 kts | 17° |
| 2026-05-08 18:03 | 59.65619 | 11.61424 | 15001 ft | 321 kts | 17° |
| 2026-05-08 18:03 | 59.67739 | 11.62781 | 14755 ft | 320 kts | 17° |
| 2026-05-08 18:03 | 59.69857 | 11.64137 | 14505 ft | 319 kts | 17° |
| 2026-05-08 18:04 | 59.71967 | 11.65492 | 14257 ft | 318 kts | 17° |
| 2026-05-08 18:04 | 59.74071 | 11.66841 | 14015 ft | 317 kts | 17° |
| 2026-05-08 18:04 | 59.76166 | 11.68183 | 13726 ft | 316 kts | 17° |
| 2026-05-08 18:04 | 59.78262 | 11.69531 | 13463 ft | 316 kts | 17° |
| 2026-05-08 18:05 | 59.80346 | 11.70873 | 13191 ft | 315 kts | 17° |
| 2026-05-08 18:05 | 59.82426 | 11.72215 | 12924 ft | 314 kts | 17° |
| 2026-05-08 18:05 | 59.84507 | 11.73559 | 12664 ft | 313 kts | 17° |
| 2026-05-08 18:05 | 59.86632 | 11.74336 | 12398 ft | 310 kts | 358° |
| 2026-05-08 18:06 | 59.88730 | 11.73638 | 12140 ft | 306 kts | 340° |
| 2026-05-08 18:06 | 59.90740 | 11.72406 | 11883 ft | 307 kts | 340° |
| 2026-05-08 18:06 | 59.92776 | 11.71150 | 11625 ft | 305 kts | 340° |
| 2026-05-08 18:06 | 59.94799 | 11.69900 | 11379 ft | 304 kts | 340° |
| 2026-05-08 18:07 | 59.96822 | 11.68651 | 11116 ft | 304 kts | 340° |
| 2026-05-08 18:07 | 59.98837 | 11.67407 | 10860 ft | 303 kts | 340° |
| 2026-05-08 18:07 | 60.00852 | 11.66164 | 10571 ft | 304 kts | 340° |
| 2026-05-08 18:07 | 60.02878 | 11.64913 | 10170 ft | 305 kts | 339° |
| 2026-05-08 18:08 | 60.04915 | 11.63648 | 9742 ft | 307 kts | 339° |
| 2026-05-08 18:08 | 60.06953 | 11.62378 | 9308 ft | 307 kts | 340° |
| 2026-05-08 18:08 | 60.08997 | 11.61107 | 8883 ft | 307 kts | 340° |
| 2026-05-08 18:08 | 60.11047 | 11.59834 | 8462 ft | 308 kts | 340° |
| 2026-05-08 18:09 | 60.13102 | 11.58556 | 8035 ft | 309 kts | 340° |
| 2026-05-08 18:09 | 60.15157 | 11.57274 | 7634 ft | 310 kts | 340° |
| 2026-05-08 18:09 | 60.17215 | 11.55991 | 7230 ft | 310 kts | 340° |
| 2026-05-08 18:09 | 60.19278 | 11.54701 | 6828 ft | 310 kts | 340° |
| 2026-05-08 18:10 | 60.21311 | 11.53425 | 6425 ft | 311 kts | 340° |
| 2026-05-08 18:10 | 60.23374 | 11.52133 | 6003 ft | 310 kts | 340° |
| 2026-05-08 18:10 | 60.25411 | 11.50859 | 5812 ft | 302 kts | 340° |
| 2026-05-08 18:10 | 60.27386 | 11.49624 | 5684 ft | 292 kts | 340° |
| 2026-05-08 18:11 | 60.29301 | 11.48425 | 5546 ft | 285 kts | 340° |
| 2026-05-08 18:11 | 60.31190 | 11.47235 | 5427 ft | 283 kts | 339° |
| 2026-05-08 18:11 | 60.33068 | 11.46045 | 5295 ft | 282 kts | 339° |
| 2026-05-08 18:11 | 60.34941 | 11.44854 | 5165 ft | 281 kts | 339° |
| 2026-05-08 18:12 | 60.36748 | 11.43708 | 5037 ft | 262 kts | 339° |
| 2026-05-08 18:12 | 60.38424 | 11.42657 | 4997 ft | 240 kts | 339° |
| 2026-05-08 18:12 | 60.39907 | 11.41446 | 4999 ft | 224 kts | 320° |
| 2026-05-08 18:12 | 60.40664 | 11.40080 | 5005 ft | 217 kts | 302° |
| 2026-05-08 18:13 | 60.41427 | 11.36556 | 5026 ft | 194 kts | 271° |
| 2026-05-08 18:13 | 60.41369 | 11.34029 | 4970 ft | 171 kts | 250° |
| 2026-05-08 18:13 | 60.41074 | 11.31723 | 4835 ft | 167 kts | 250° |
| 2026-05-08 18:13 | 60.40789 | 11.29458 | 4740 ft | 164 kts | 250° |
| 2026-05-08 18:14 | 60.40604 | 11.27975 | 4713 ft | 164 kts | 250° |
| 2026-05-08 18:14 | 60.40063 | 11.25153 | 4607 ft | 162 kts | 231° |
| 2026-05-08 18:14 | 60.39548 | 11.24026 | 4415 ft | 162 kts | 217° |
| 2026-05-08 18:14 | 60.38578 | 11.22974 | 4133 ft | 161 kts | 198° |
| 2026-05-08 18:15 | 60.37494 | 11.22355 | 3857 ft | 162 kts | 198° |
| 2026-05-08 18:15 | 60.36400 | 11.21719 | 3585 ft | 164 kts | 198° |
| 2026-05-08 18:15 | 60.35329 | 11.21094 | 3499 ft | 154 kts | 198° |
| 2026-05-08 18:15 | 60.34319 | 11.20504 | 3494 ft | 148 kts | 198° |
| 2026-05-08 18:16 | 60.33331 | 11.19928 | 3405 ft | 146 kts | 198° |
| 2026-05-08 18:16 | 60.32354 | 11.19358 | 3249 ft | 145 kts | 198° |
| 2026-05-08 18:16 | 60.31384 | 11.18791 | 3062 ft | 145 kts | 198° |
| 2026-05-08 18:16 | 60.30422 | 11.18231 | 2874 ft | 145 kts | 198° |
| 2026-05-08 18:17 | 60.29453 | 11.17666 | 2667 ft | 145 kts | 198° |
| 2026-05-08 18:17 | 60.28490 | 11.17106 | 2500 ft | 142 kts | 198° |
| 2026-05-08 18:17 | 60.27545 | 11.16557 | 2292 ft | 141 kts | 198° |
| 2026-05-08 18:17 | 60.26602 | 11.16009 | 2097 ft | 140 kts | 198° |
| 2026-05-08 18:18 | 60.25667 | 11.15466 | 1900 ft | 139 kts | 197° |
| 2026-05-08 18:18 | 60.24726 | 11.14919 | 1704 ft | 142 kts | 198° |
| 2026-05-08 18:18 | 60.23770 | 11.14365 | 1491 ft | 144 kts | 197° |
| 2026-05-08 18:18 | 60.22822 | 11.13815 | 1290 ft | 143 kts | 197° |
| 2026-05-08 18:19 | 60.21867 | 11.13262 | 1096 ft | 143 kts | 196° |
| 2026-05-08 18:19 | 60.20917 | 11.12712 | 897 ft | 142 kts | 196° |
| 2026-05-08 18:19 | 60.19973 | 11.12166 | 716 ft | 136 kts | 196° |
| 2026-05-08 18:19 | 60.19192 | 11.11707 | 686 ft | 100 kts | 196° |
| 2026-05-08 18:20 | 60.18740 | 11.11446 | 683 ft | 48 kts | 196° |
| 2026-05-08 18:20 | 60.18494 | 11.11239 | 682 ft | 21 kts | 215° |
| 2026-05-08 18:20 | 60.18441 | 11.11102 | 682 ft | 9 kts | 253° |
| 2026-05-08 18:20 | 60.18447 | 11.10981 | 683 ft | 8 kts | 285° |
| 2026-05-08 18:21 | 60.18522 | 11.10930 | 683 ft | 16 kts | 28° |
| 2026-05-08 18:21 | 60.18652 | 11.11001 | 681 ft | 21 kts | 18° |
| 2026-05-08 18:21 | 60.18773 | 11.11075 | 684 ft | 22 kts | 16° |
| 2026-05-08 18:21 | 60.18926 | 11.11161 | 685 ft | 26 kts | 16° |
| 2026-05-08 18:22 | 60.19021 | 11.11216 | 685 ft | 6 kts | 16° |
| 2026-05-08 18:22 | 60.19029 | 11.11220 | 685 ft | 0 kts | 12° |
| 2026-05-08 18:24 | 60.19033 | 11.11221 | 679 ft | 3 kts | 12° |
| 2026-05-08 18:24 | 60.19112 | 11.11264 | 686 ft | 21 kts | 16° |
| 2026-05-08 18:24 | 60.19274 | 11.11361 | 681 ft | 22 kts | 16° |
| 2026-05-08 18:24 | 60.19389 | 11.11379 | 685 ft | 16 kts | 328° |
| 2026-05-08 18:25 | 60.19430 | 11.11165 | 684 ft | 15 kts | 286° |
| 2026-05-08 18:25 | 60.19462 | 11.10947 | 684 ft | 18 kts | 285° |
| 2026-05-08 18:25 | 60.19500 | 11.10686 | 683 ft | 21 kts | 285° |
| 2026-05-08 18:25 | 60.19529 | 11.10477 | 684 ft | 16 kts | 286° |
| 2026-05-08 18:26 | 60.19535 | 11.10341 | 679 ft | 9 kts | 250° |
| 2026-05-08 18:26 | 60.19505 | 11.10270 | 682 ft | 5 kts | 184° |
| 2026-05-08 18:26 | 60.19468 | 11.10247 | 682 ft | 4 kts | 195° |
| 2026-05-08 18:26 | 60.19460 | 11.10243 | 682 ft | 0 kts | 194° |
| 2026-05-08 18:32 | 60.19460 | 11.10244 | 682 ft | 0 kts | 194° |
| 2026-05-08 18:35 | 60.19461 | 11.10244 | 682 ft | 0 kts | 194° |